createdAt,value
2018-07-11T00:00:20.189Z,0.00
2018-07-11T00:01:20.242Z,0.00
2018-07-11T00:02:20.165Z,0.00
2018-07-11T00:03:20.155Z,0.00
2018-07-11T00:04:20.148Z,0.00
2018-07-11T00:05:20.132Z,0.00
2018-07-11T00:06:20.195Z,0.00
2018-07-11T00:07:20.110Z,0.00
2018-07-11T00:08:20.095Z,0.00
2018-07-11T00:09:20.090Z,0.00
2018-07-11T00:10:20.082Z,0.00
2018-07-11T00:11:20.150Z,0.00
2018-07-11T00:12:20.054Z,0.00
2018-07-11T00:13:20.043Z,0.00
2018-07-11T00:14:20.036Z,0.00
2018-07-11T00:15:20.024Z,0.00
2018-07-11T00:16:20.092Z,0.00
2018-07-11T00:17:20.002Z,0.00
2018-07-11T00:18:19.991Z,0.00
2018-07-11T00:19:20.905Z,0.00
2018-07-11T00:20:19.968Z,0.00
2018-07-11T00:21:20.021Z,0.00
2018-07-11T00:22:19.946Z,0.00
2018-07-11T00:23:19.938Z,0.00
2018-07-11T00:24:19.930Z,0.00
2018-07-11T00:25:19.918Z,0.00
2018-07-11T00:26:19.968Z,0.00
2018-07-11T00:27:19.891Z,0.00
2018-07-11T00:28:19.882Z,0.00
2018-07-11T00:29:19.874Z,0.00
2018-07-11T00:30:19.864Z,0.00
2018-07-11T00:31:19.921Z,0.00
2018-07-11T00:32:19.841Z,0.00
2018-07-11T00:33:19.830Z,0.00
2018-07-11T00:34:19.820Z,0.00
2018-07-11T00:35:19.808Z,0.00
2018-07-11T00:36:19.874Z,0.00
2018-07-11T00:37:19.880Z,0.00
2018-07-11T00:38:19.783Z,0.00
2018-07-11T00:39:19.767Z,0.00
2018-07-11T00:40:20.405Z,0.00
2018-07-11T00:41:19.809Z,0.00
2018-07-11T00:42:19.731Z,0.00
2018-07-11T00:43:19.725Z,0.00
2018-07-11T00:44:19.710Z,0.00
2018-07-11T00:45:19.701Z,0.00
2018-07-11T00:46:19.753Z,0.00
2018-07-11T00:47:19.676Z,0.00
2018-07-11T00:48:19.670Z,0.00
2018-07-11T00:49:19.665Z,0.00
2018-07-11T00:50:19.648Z,0.00
2018-07-11T00:51:19.703Z,0.00
2018-07-11T00:52:19.626Z,0.00
2018-07-11T00:53:19.615Z,0.00
2018-07-11T00:54:19.604Z,0.00
2018-07-11T00:55:19.592Z,0.00
2018-07-11T00:56:19.651Z,0.00
2018-07-11T00:57:19.576Z,0.00
2018-07-11T00:58:19.564Z,0.00
2018-07-11T00:59:19.554Z,0.00
2018-07-11T01:00:19.538Z,0.00
2018-07-11T01:01:20.014Z,0.00
2018-07-11T01:02:19.521Z,0.00
2018-07-11T01:03:19.510Z,0.00
2018-07-11T01:04:19.499Z,0.00
2018-07-11T01:05:19.488Z,0.00
2018-07-11T01:06:19.543Z,0.00
2018-07-11T01:07:19.463Z,0.00
2018-07-11T01:08:19.452Z,0.00
2018-07-11T01:09:27.615Z,0.00
2018-07-11T01:10:27.598Z,0.00
2018-07-11T01:11:27.597Z,0.00
2018-07-11T01:12:27.509Z,0.00
2018-07-11T01:13:27.519Z,0.00
2018-07-11T01:14:19.388Z,0.00
2018-07-11T01:15:19.380Z,0.00
2018-07-11T01:16:19.435Z,0.00
2018-07-11T01:17:27.544Z,0.00
2018-07-11T01:18:27.455Z,0.00
2018-07-11T01:19:29.305Z,0.00
2018-07-11T01:20:30.344Z,0.00
2018-07-11T01:21:26.930Z,0.00
2018-07-11T01:22:27.374Z,0.00
2018-07-11T01:23:19.295Z,0.00
2018-07-11T01:24:19.286Z,0.00
2018-07-11T01:25:19.269Z,0.00
2018-07-11T01:26:19.330Z,0.00
2018-07-11T01:27:19.265Z,0.00
2018-07-11T01:28:19.239Z,0.00
2018-07-11T01:29:19.225Z,0.00
2018-07-11T01:30:19.795Z,0.00
2018-07-11T01:31:19.277Z,0.00
2018-07-11T01:32:19.195Z,0.00
2018-07-11T01:33:19.184Z,0.00
2018-07-11T01:34:19.178Z,0.00
2018-07-11T01:35:19.167Z,0.00
2018-07-11T01:36:19.220Z,0.00
2018-07-11T01:37:19.142Z,0.00
2018-07-11T01:38:19.134Z,0.00
2018-07-11T01:39:19.120Z,0.00
2018-07-11T01:40:19.115Z,0.00
2018-07-11T01:41:19.098Z,0.00
2018-07-11T01:42:19.155Z,0.00
2018-07-11T01:43:19.794Z,0.00
2018-07-11T01:44:19.065Z,0.00
2018-07-11T01:45:19.059Z,0.00
2018-07-11T01:46:19.056Z,0.00
2018-07-11T01:47:19.100Z,0.00
2018-07-11T01:48:19.028Z,0.00
2018-07-11T01:49:19.010Z,0.00
2018-07-11T01:50:19.004Z,0.00
2018-07-11T01:51:18.995Z,0.00
2018-07-11T01:52:19.048Z,0.00
2018-07-11T01:53:18.970Z,0.00
2018-07-11T01:54:18.978Z,0.00
2018-07-11T01:55:18.946Z,0.00
2018-07-11T01:56:18.938Z,0.00
2018-07-11T01:57:19.000Z,0.00
2018-07-11T01:58:18.915Z,0.00
2018-07-11T01:59:18.909Z,0.00
2018-07-11T02:00:18.895Z,0.00
2018-07-11T02:01:18.902Z,0.00
2018-07-11T02:02:18.938Z,0.00
2018-07-11T02:03:18.876Z,0.00
2018-07-11T02:04:19.798Z,0.00
2018-07-11T02:05:18.838Z,0.00
2018-07-11T02:06:18.827Z,0.00
2018-07-11T02:07:18.880Z,0.00
2018-07-11T02:08:18.805Z,0.00
2018-07-11T02:09:18.794Z,0.00
2018-07-11T02:10:18.788Z,0.00
2018-07-11T02:11:18.777Z,0.00
2018-07-11T02:12:18.837Z,0.00
2018-07-11T02:13:18.755Z,0.00
2018-07-11T02:14:18.744Z,0.00
2018-07-11T02:15:18.731Z,0.00
2018-07-11T02:16:18.723Z,0.00
2018-07-11T02:17:18.774Z,0.00
2018-07-11T02:18:18.700Z,0.00
2018-07-11T02:19:18.692Z,0.00
2018-07-11T02:20:18.678Z,0.00
2018-07-11T02:21:18.667Z,0.00
2018-07-11T02:22:18.725Z,0.00
2018-07-11T02:23:18.645Z,0.00
2018-07-11T02:24:18.639Z,0.00
2018-07-11T02:25:19.288Z,0.00
2018-07-11T02:26:18.624Z,0.00
2018-07-11T02:27:18.680Z,0.00
2018-07-11T02:28:18.595Z,0.00
2018-07-11T02:29:18.587Z,0.00
2018-07-11T02:30:18.573Z,0.00
2018-07-11T02:31:18.563Z,0.00
2018-07-11T02:32:18.628Z,0.00
2018-07-11T02:33:18.537Z,0.00
2018-07-11T02:34:18.527Z,0.00
2018-07-11T02:35:18.518Z,0.00
2018-07-11T02:36:18.507Z,0.00
2018-07-11T02:37:18.560Z,0.00
2018-07-11T02:38:18.490Z,0.00
2018-07-11T02:39:18.477Z,0.00
2018-07-11T02:40:18.479Z,0.00
2018-07-11T02:41:18.452Z,0.00
2018-07-11T02:42:18.511Z,0.00
2018-07-11T02:43:18.433Z,0.00
2018-07-11T02:44:18.418Z,0.00
2018-07-11T02:45:18.413Z,0.00
2018-07-11T02:46:19.285Z,0.00
2018-07-11T02:47:18.460Z,0.00
2018-07-11T02:48:18.377Z,0.00
2018-07-11T02:49:18.371Z,0.00
2018-07-11T02:50:18.365Z,0.00
2018-07-11T02:51:18.346Z,0.00
2018-07-11T02:52:18.399Z,0.00
2018-07-11T02:53:18.325Z,0.00
2018-07-11T02:54:18.313Z,0.00
2018-07-11T02:55:18.312Z,0.00
2018-07-11T02:56:18.295Z,0.00
2018-07-11T02:57:18.349Z,0.00
2018-07-11T02:58:18.277Z,0.00
2018-07-11T02:59:18.256Z,0.00
2018-07-11T03:00:18.251Z,0.00
2018-07-11T03:01:18.237Z,0.00
2018-07-11T03:02:18.296Z,0.00
2018-07-11T03:03:18.221Z,0.00
2018-07-11T03:04:18.215Z,0.00
2018-07-11T03:05:18.198Z,0.00
2018-07-11T03:06:18.185Z,0.00
2018-07-11T03:07:18.357Z,0.00
2018-07-11T03:08:18.177Z,0.00
2018-07-11T03:09:18.158Z,0.00
2018-07-11T03:10:18.140Z,0.00
2018-07-11T03:11:18.128Z,0.00
2018-07-11T03:12:18.202Z,0.00
2018-07-11T03:13:18.109Z,0.00
2018-07-11T03:14:18.109Z,0.00
2018-07-11T03:15:18.084Z,0.00
2018-07-11T03:16:18.075Z,0.00
2018-07-11T03:17:18.128Z,0.00
2018-07-11T03:18:18.063Z,0.00
2018-07-11T03:19:18.045Z,0.00
2018-07-11T03:20:18.036Z,0.00
2018-07-11T03:21:18.020Z,0.00
2018-07-11T03:22:18.078Z,0.00
2018-07-11T03:23:18.000Z,0.00
2018-07-11T03:24:17.989Z,5.62
2018-07-11T03:25:17.978Z,5.62
2018-07-11T03:26:17.967Z,5.62
2018-07-11T03:27:18.030Z,5.62
2018-07-11T03:28:18.783Z,5.62
2018-07-11T03:29:17.937Z,5.62
2018-07-11T03:30:17.934Z,5.62
2018-07-11T03:31:18.779Z,5.62
2018-07-11T03:32:17.901Z,5.62
2018-07-11T03:33:17.956Z,5.62
2018-07-11T03:34:17.883Z,11.25
2018-07-11T03:35:17.881Z,11.25
2018-07-11T03:36:17.870Z,11.25
2018-07-11T03:37:17.849Z,11.25
2018-07-11T03:38:17.898Z,11.25
2018-07-11T03:39:17.826Z,16.88
2018-07-11T03:40:17.818Z,16.88
2018-07-11T03:41:17.811Z,16.88
2018-07-11T03:42:17.798Z,16.88
2018-07-11T03:43:17.854Z,22.50
2018-07-11T03:44:17.774Z,22.50
2018-07-11T03:45:17.768Z,22.50
2018-07-11T03:46:17.751Z,22.50
2018-07-11T03:47:17.745Z,22.50
2018-07-11T03:48:17.796Z,28.12
2018-07-11T03:49:18.289Z,28.12
2018-07-11T03:50:17.718Z,28.12
2018-07-11T03:51:17.702Z,28.12
2018-07-11T03:52:17.688Z,33.75
2018-07-11T03:53:17.751Z,33.75
2018-07-11T03:54:17.670Z,33.75
2018-07-11T03:55:17.658Z,33.75
2018-07-11T03:56:17.644Z,39.38
2018-07-11T03:57:17.633Z,39.38
2018-07-11T03:58:17.691Z,39.38
2018-07-11T03:59:17.611Z,39.38
2018-07-11T04:00:17.602Z,39.38
2018-07-11T04:01:17.591Z,45.00
2018-07-11T04:02:17.583Z,45.00
2018-07-11T04:03:17.638Z,45.00
2018-07-11T04:04:17.563Z,50.62
2018-07-11T04:05:17.548Z,50.62
2018-07-11T04:06:17.536Z,50.62
2018-07-11T04:07:17.530Z,50.62
2018-07-11T04:08:17.593Z,56.25
2018-07-11T04:09:17.508Z,56.25
2018-07-11T04:10:18.271Z,56.25
2018-07-11T04:11:17.486Z,56.25
2018-07-11T04:12:17.472Z,56.25
2018-07-11T04:13:17.534Z,56.25
2018-07-11T04:14:17.453Z,56.25
2018-07-11T04:15:17.441Z,56.25
2018-07-11T04:16:17.431Z,56.25
2018-07-11T04:17:17.420Z,61.88
2018-07-11T04:18:17.470Z,61.88
2018-07-11T04:19:17.401Z,61.88
2018-07-11T04:20:17.387Z,67.50
2018-07-11T04:21:17.376Z,67.50
2018-07-11T04:22:17.364Z,73.12
2018-07-11T04:23:17.422Z,73.12
2018-07-11T04:24:17.340Z,67.50
2018-07-11T04:25:17.340Z,67.50
2018-07-11T04:26:17.318Z,67.50
2018-07-11T04:27:17.312Z,73.12
2018-07-11T04:28:17.367Z,73.12
2018-07-11T04:29:17.290Z,73.12
2018-07-11T04:30:17.279Z,73.12
2018-07-11T04:31:17.785Z,73.12
2018-07-11T04:32:17.260Z,67.50
2018-07-11T04:33:17.325Z,61.88
2018-07-11T04:34:17.235Z,56.25
2018-07-11T04:35:17.253Z,61.88
2018-07-11T04:36:17.221Z,61.88
2018-07-11T04:37:17.203Z,67.50
2018-07-11T04:38:17.265Z,67.50
2018-07-11T04:39:17.188Z,67.50
2018-07-11T04:40:17.172Z,61.88
2018-07-11T04:41:17.160Z,61.88
2018-07-11T04:42:17.147Z,61.88
2018-07-11T04:43:17.215Z,61.88
2018-07-11T04:44:17.130Z,67.50
2018-07-11T04:45:17.120Z,67.50
2018-07-11T04:46:17.108Z,67.50
2018-07-11T04:47:17.097Z,61.88
2018-07-11T04:48:17.144Z,61.88
2018-07-11T04:49:17.067Z,56.25
2018-07-11T04:50:17.069Z,50.62
2018-07-11T04:51:17.053Z,45.00
2018-07-11T04:52:18.772Z,45.00
2018-07-11T04:53:17.099Z,45.00
2018-07-11T04:54:17.017Z,45.00
2018-07-11T04:55:17.011Z,39.38
2018-07-11T04:56:16.997Z,39.38
2018-07-11T04:57:25.257Z,39.38
2018-07-11T04:58:25.230Z,39.38
2018-07-11T04:59:25.169Z,39.38
2018-07-11T05:00:25.190Z,45.00
2018-07-11T05:01:16.984Z,67.50
2018-07-11T05:02:16.949Z,112.50
2018-07-11T05:03:16.995Z,196.88
2018-07-11T05:04:25.123Z,241.88
2018-07-11T05:05:25.034Z,241.88
2018-07-11T05:06:16.892Z,196.88
2018-07-11T05:07:25.040Z,174.38
2018-07-11T05:08:25.514Z,157.50
2018-07-11T05:09:24.384Z,140.62
2018-07-11T05:10:25.511Z,123.75
2018-07-11T05:11:16.905Z,118.12
2018-07-11T05:12:16.826Z,112.50
2018-07-11T05:13:16.818Z,106.88
2018-07-11T05:14:16.865Z,101.25
2018-07-11T05:15:16.795Z,106.88
2018-07-11T05:16:16.844Z,112.50
2018-07-11T05:17:16.794Z,123.75
2018-07-11T05:18:16.757Z,129.38
2018-07-11T05:19:16.815Z,140.62
2018-07-11T05:20:16.746Z,163.12
2018-07-11T05:21:16.727Z,180.00
2018-07-11T05:22:16.721Z,191.25
2018-07-11T05:23:16.712Z,196.88
2018-07-11T05:24:16.763Z,219.38
2018-07-11T05:25:16.685Z,219.38
2018-07-11T05:26:17.626Z,236.25
2018-07-11T05:27:16.668Z,264.38
2018-07-11T05:28:16.650Z,286.88
2018-07-11T05:29:16.710Z,258.75
2018-07-11T05:30:16.640Z,219.38
2018-07-11T05:31:16.622Z,185.62
2018-07-11T05:32:16.608Z,157.50
2018-07-11T05:33:16.602Z,140.62
2018-07-11T05:34:16.650Z,129.38
2018-07-11T05:35:16.577Z,129.38
2018-07-11T05:36:16.625Z,123.75
2018-07-11T05:37:16.559Z,123.75
2018-07-11T05:38:16.553Z,135.00
2018-07-11T05:39:16.600Z,151.88
2018-07-11T05:40:16.525Z,151.88
2018-07-11T05:41:16.524Z,135.00
2018-07-11T05:42:16.509Z,140.62
2018-07-11T05:43:16.498Z,140.62
2018-07-11T05:44:16.545Z,129.38
2018-07-11T05:45:16.475Z,123.75
2018-07-11T05:46:16.459Z,129.38
2018-07-11T05:47:17.124Z,129.38
2018-07-11T05:48:16.463Z,118.12
2018-07-11T05:49:16.494Z,118.12
2018-07-11T05:50:16.414Z,123.75
2018-07-11T05:51:16.407Z,123.75
2018-07-11T05:52:16.394Z,129.38
2018-07-11T05:53:16.395Z,123.75
2018-07-11T05:54:16.439Z,112.50
2018-07-11T05:55:16.362Z,101.25
2018-07-11T05:56:16.354Z,106.88
2018-07-11T05:57:16.345Z,106.88
2018-07-11T05:58:16.332Z,106.88
2018-07-11T05:59:16.384Z,101.25
2018-07-11T06:00:16.312Z,101.25
2018-07-11T06:01:16.317Z,101.25
2018-07-11T06:02:16.290Z,101.25
2018-07-11T06:03:16.297Z,95.62
2018-07-11T06:04:16.342Z,106.88
2018-07-11T06:05:16.262Z,123.75
2018-07-11T06:06:16.254Z,135.00
2018-07-11T06:07:16.235Z,140.62
2018-07-11T06:08:17.122Z,151.88
2018-07-11T06:09:16.279Z,151.88
2018-07-11T06:10:16.202Z,151.88
2018-07-11T06:11:16.193Z,151.88
2018-07-11T06:12:16.190Z,163.12
2018-07-11T06:13:16.219Z,185.62
2018-07-11T06:14:16.223Z,196.88
2018-07-11T06:15:16.151Z,196.88
2018-07-11T06:16:16.158Z,196.88
2018-07-11T06:17:16.135Z,196.88
2018-07-11T06:18:16.121Z,219.38
2018-07-11T06:19:16.189Z,247.50
2018-07-11T06:20:16.102Z,275.62
2018-07-11T06:21:16.099Z,275.62
2018-07-11T06:22:16.077Z,264.38
2018-07-11T06:23:16.066Z,258.75
2018-07-11T06:24:16.122Z,270.00
2018-07-11T06:25:16.051Z,275.62
2018-07-11T06:26:16.033Z,298.12
2018-07-11T06:27:16.024Z,309.38
2018-07-11T06:28:16.014Z,303.75
2018-07-11T06:29:16.195Z,309.38
2018-07-11T06:30:15.991Z,326.25
2018-07-11T06:31:15.986Z,331.88
2018-07-11T06:32:15.969Z,331.88
2018-07-11T06:33:15.952Z,315.00
2018-07-11T06:34:16.026Z,303.75
2018-07-11T06:35:15.933Z,303.75
2018-07-11T06:36:15.933Z,298.12
2018-07-11T06:37:15.912Z,286.88
2018-07-11T06:38:15.907Z,275.62
2018-07-11T06:39:15.989Z,281.25
2018-07-11T06:40:15.880Z,275.62
2018-07-11T06:41:15.867Z,275.62
2018-07-11T06:42:15.860Z,286.88
2018-07-11T06:43:15.848Z,303.75
2018-07-11T06:44:15.901Z,331.88
2018-07-11T06:45:15.829Z,348.75
2018-07-11T06:46:15.818Z,354.38
2018-07-11T06:47:15.804Z,360.00
2018-07-11T06:48:15.798Z,354.38
2018-07-11T06:49:15.785Z,343.12
2018-07-11T06:50:16.201Z,331.88
2018-07-11T06:51:15.762Z,320.62
2018-07-11T06:52:15.757Z,303.75
2018-07-11T06:53:16.620Z,292.50
2018-07-11T06:54:15.734Z,315.00
2018-07-11T06:55:15.784Z,343.12
2018-07-11T06:56:15.707Z,399.38
2018-07-11T06:57:15.699Z,523.12
2018-07-11T06:58:15.687Z,641.25
2018-07-11T06:59:15.676Z,1316.25
2018-07-11T07:00:15.734Z,1501.88
2018-07-11T07:01:15.652Z,1704.38
2018-07-11T07:02:15.643Z,1687.50
2018-07-11T07:03:15.638Z,1636.88
2018-07-11T07:04:15.629Z,1659.38
2018-07-11T07:05:15.680Z,1670.62
2018-07-11T07:06:15.610Z,1575.00
2018-07-11T07:07:15.589Z,1614.38
2018-07-11T07:08:15.577Z,1361.25
2018-07-11T07:09:15.566Z,1788.75
2018-07-11T07:10:15.640Z,1698.75
2018-07-11T07:11:16.118Z,1856.25
2018-07-11T07:12:15.536Z,1873.12
2018-07-11T07:13:15.525Z,1271.25
2018-07-11T07:14:15.514Z,1186.88
2018-07-11T07:15:15.569Z,1350.00
2018-07-11T07:16:15.497Z,1631.25
2018-07-11T07:17:15.485Z,1113.75
2018-07-11T07:18:15.485Z,961.88
2018-07-11T07:19:15.459Z,1068.75
2018-07-11T07:20:15.514Z,1980.00
2018-07-11T07:21:15.442Z,2036.25
2018-07-11T07:22:15.439Z,2137.50
2018-07-11T07:23:15.420Z,2160.00
2018-07-11T07:24:15.411Z,2210.62
2018-07-11T07:25:15.466Z,1918.12
2018-07-11T07:26:15.389Z,2165.62
2018-07-11T07:27:15.388Z,2109.38
2018-07-11T07:28:15.367Z,2143.12
2018-07-11T07:29:15.359Z,2278.12
2018-07-11T07:30:15.427Z,2272.50
2018-07-11T07:31:15.334Z,2233.12
2018-07-11T07:32:16.126Z,1861.88
2018-07-11T07:33:15.317Z,2458.12
2018-07-11T07:34:15.309Z,2401.88
2018-07-11T07:35:15.358Z,2306.25
2018-07-11T07:36:15.287Z,2250.00
2018-07-11T07:37:15.273Z,2340.00
2018-07-11T07:38:15.267Z,2351.25
2018-07-11T07:39:15.257Z,2334.38
2018-07-11T07:40:15.317Z,2278.12
2018-07-11T07:41:15.237Z,2306.25
2018-07-11T07:42:15.228Z,2379.38
2018-07-11T07:43:15.212Z,2452.50
2018-07-11T07:44:15.203Z,2340.00
2018-07-11T07:45:15.264Z,2368.12
2018-07-11T07:46:15.184Z,2424.38
2018-07-11T07:47:15.176Z,2345.62
2018-07-11T07:48:15.165Z,1198.12
2018-07-11T07:49:15.154Z,1046.25
2018-07-11T07:50:15.208Z,939.38
2018-07-11T07:51:15.131Z,703.12
2018-07-11T07:52:15.120Z,635.62
2018-07-11T07:53:15.621Z,596.25
2018-07-11T07:54:15.100Z,601.88
2018-07-11T07:55:15.162Z,838.12
2018-07-11T07:56:15.082Z,2497.50
2018-07-11T07:57:15.077Z,2401.88
2018-07-11T07:58:15.075Z,2610.00
2018-07-11T07:59:15.051Z,2581.88
2018-07-11T08:00:15.106Z,2638.12
2018-07-11T08:01:15.032Z,2643.75
2018-07-11T08:02:15.021Z,2722.50
2018-07-11T08:03:15.013Z,2666.25
2018-07-11T08:04:15.001Z,2795.62
2018-07-11T08:05:15.059Z,2233.12
2018-07-11T08:06:14.987Z,2199.38
2018-07-11T08:07:14.971Z,1445.62
2018-07-11T08:08:14.959Z,1254.38
2018-07-11T08:09:14.953Z,900.00
2018-07-11T08:10:15.041Z,759.38
2018-07-11T08:11:14.947Z,675.00
2018-07-11T08:12:16.735Z,680.62
2018-07-11T08:13:14.909Z,753.75
2018-07-11T08:14:16.622Z,2531.25
2018-07-11T08:15:14.954Z,2660.62
2018-07-11T08:16:14.879Z,2711.25
2018-07-11T08:17:14.868Z,1018.12
2018-07-11T08:18:14.865Z,1721.25
2018-07-11T08:19:14.848Z,793.12
2018-07-11T08:20:14.910Z,691.88
2018-07-11T08:21:14.856Z,736.88
2018-07-11T08:22:14.818Z,736.88
2018-07-11T08:23:15.197Z,669.38
2018-07-11T08:24:14.817Z,618.75
2018-07-11T08:25:14.851Z,630.00
2018-07-11T08:26:15.137Z,866.25
2018-07-11T08:27:15.191Z,2497.50
2018-07-11T08:28:15.162Z,2638.12
2018-07-11T08:29:14.749Z,894.38
2018-07-11T08:30:15.351Z,978.75
2018-07-11T08:31:15.016Z,911.25
2018-07-11T08:32:14.881Z,1828.12
2018-07-11T08:33:15.100Z,2981.25
2018-07-11T08:34:15.013Z,2013.75
2018-07-11T08:35:15.954Z,2835.00
2018-07-11T08:36:14.740Z,3099.38
2018-07-11T08:37:14.960Z,3054.38
2018-07-11T08:38:15.108Z,1175.62
2018-07-11T08:39:15.094Z,1428.75
2018-07-11T08:40:14.948Z,3240.00
2018-07-11T08:41:14.792Z,3144.38
2018-07-11T08:42:14.764Z,1366.88
2018-07-11T08:43:14.772Z,1035.00
2018-07-11T08:44:14.596Z,3178.12
2018-07-11T08:45:14.593Z,1451.25
2018-07-11T08:46:16.620Z,3093.75
2018-07-11T08:47:22.097Z,3082.50
2018-07-11T08:48:22.732Z,3296.25
2018-07-11T08:49:23.601Z,3206.25
2018-07-11T08:50:14.551Z,3290.62
2018-07-11T08:51:14.596Z,3099.38
2018-07-11T08:52:14.644Z,3206.25
2018-07-11T08:53:14.510Z,2981.25
2018-07-11T08:54:14.899Z,2896.88
2018-07-11T08:55:22.827Z,3093.75
2018-07-11T08:56:23.204Z,2992.50
2018-07-11T08:57:14.824Z,3127.50
2018-07-11T08:58:14.465Z,3166.88
2018-07-11T08:59:14.465Z,3183.75
2018-07-11T09:00:14.483Z,3060.00
2018-07-11T09:01:14.496Z,3003.75
2018-07-11T09:02:14.427Z,3116.25
2018-07-11T09:03:14.419Z,3161.25
2018-07-11T09:04:14.413Z,3037.50
2018-07-11T09:05:14.399Z,3037.50
2018-07-11T09:06:14.457Z,3048.75
2018-07-11T09:07:14.382Z,3026.25
2018-07-11T09:08:14.371Z,3082.50
2018-07-11T09:09:14.365Z,3161.25
2018-07-11T09:10:14.354Z,3155.62
2018-07-11T09:11:14.417Z,3099.38
2018-07-11T09:12:14.337Z,3133.12
2018-07-11T09:13:14.327Z,3200.62
2018-07-11T09:14:14.323Z,3110.62
2018-07-11T09:15:15.290Z,3138.75
2018-07-11T09:16:14.370Z,3183.75
2018-07-11T09:17:15.289Z,2958.75
2018-07-11T09:18:14.287Z,2981.25
2018-07-11T09:19:14.282Z,3211.88
2018-07-11T09:20:14.268Z,3403.12
2018-07-11T09:21:14.323Z,3301.88
2018-07-11T09:22:14.251Z,3240.00
2018-07-11T09:23:14.248Z,3504.38
2018-07-11T09:24:14.291Z,3346.88
2018-07-11T09:25:14.228Z,3290.62
2018-07-11T09:26:14.280Z,2925.00
2018-07-11T09:27:14.208Z,2008.12
2018-07-11T09:28:14.203Z,1035.00
2018-07-11T09:29:14.193Z,990.00
2018-07-11T09:30:14.184Z,1001.25
2018-07-11T09:31:14.244Z,967.50
2018-07-11T09:32:14.170Z,1057.50
2018-07-11T09:33:14.184Z,2401.88
2018-07-11T09:34:14.152Z,2171.25
2018-07-11T09:35:14.139Z,3178.12
2018-07-11T09:36:14.194Z,3268.12
2018-07-11T09:37:14.125Z,3425.62
2018-07-11T09:38:14.789Z,3307.50
2018-07-11T09:39:14.103Z,3352.50
2018-07-11T09:40:14.097Z,3391.88
2018-07-11T09:41:14.154Z,3161.25
2018-07-11T09:42:14.084Z,3133.12
2018-07-11T09:43:14.071Z,3105.00
2018-07-11T09:44:14.066Z,2885.62
2018-07-11T09:45:14.052Z,3493.12
2018-07-11T09:46:14.128Z,3330.00
2018-07-11T09:47:14.036Z,3386.25
2018-07-11T09:48:14.032Z,3352.50
2018-07-11T09:49:14.016Z,3155.62
2018-07-11T09:50:14.007Z,2902.50
2018-07-11T09:51:14.081Z,2975.62
2018-07-11T09:52:14.051Z,3251.25
2018-07-11T09:53:13.982Z,3363.75
2018-07-11T09:54:13.975Z,3346.88
2018-07-11T09:55:13.973Z,3526.88
2018-07-11T09:56:14.020Z,3380.62
2018-07-11T09:57:13.955Z,3555.00
2018-07-11T09:58:13.943Z,3436.88
2018-07-11T09:59:14.788Z,3774.38
2018-07-11T10:00:13.928Z,3853.12
2018-07-11T10:01:13.982Z,2863.12
2018-07-11T10:02:13.930Z,2182.50
2018-07-11T10:03:13.922Z,2649.38
2018-07-11T10:04:13.897Z,2688.75
2018-07-11T10:05:13.920Z,1051.88
2018-07-11T10:06:13.948Z,990.00
2018-07-11T10:07:13.867Z,1063.12
2018-07-11T10:08:13.864Z,1040.62
2018-07-11T10:09:13.849Z,3673.12
2018-07-11T10:10:13.843Z,3245.62
2018-07-11T10:11:13.897Z,3757.50
2018-07-11T10:12:13.826Z,1170.00
2018-07-11T10:13:13.817Z,1226.25
2018-07-11T10:14:13.808Z,3420.00
2018-07-11T10:15:13.821Z,2610.00
2018-07-11T10:16:13.789Z,1974.38
2018-07-11T10:17:13.844Z,1800.00
2018-07-11T10:18:13.775Z,1732.50
2018-07-11T10:19:13.764Z,2086.88
2018-07-11T10:20:14.289Z,1710.00
2018-07-11T10:21:13.747Z,1620.00
2018-07-11T10:22:13.824Z,1636.88
2018-07-11T10:23:13.753Z,3768.75
2018-07-11T10:24:13.719Z,4376.25
2018-07-11T10:25:13.714Z,4117.50
2018-07-11T10:26:13.700Z,2199.38
2018-07-11T10:27:13.757Z,2221.88
2018-07-11T10:28:13.686Z,2829.38
2018-07-11T10:29:13.675Z,2812.50
2018-07-11T10:30:13.667Z,3560.62
2018-07-11T10:31:13.663Z,3971.25
2018-07-11T10:32:13.715Z,3234.38
2018-07-11T10:33:13.638Z,2210.62
2018-07-11T10:34:13.630Z,2176.88
2018-07-11T10:35:13.624Z,2818.12
2018-07-11T10:36:13.680Z,3695.62
2018-07-11T10:37:13.671Z,2750.62
2018-07-11T10:38:13.599Z,2812.50
2018-07-11T10:39:13.628Z,2452.50
2018-07-11T10:40:13.580Z,1856.25
2018-07-11T10:41:14.287Z,1485.00
2018-07-11T10:42:13.632Z,1350.00
2018-07-11T10:43:13.563Z,1333.12
2018-07-11T10:44:13.546Z,1361.25
2018-07-11T10:45:13.533Z,1395.00
2018-07-11T10:46:13.535Z,1428.75
2018-07-11T10:47:13.589Z,1440.00
2018-07-11T10:48:13.510Z,1434.38
2018-07-11T10:49:21.616Z,1445.62
2018-07-11T10:50:21.628Z,1524.38
2018-07-11T10:51:13.487Z,1659.38
2018-07-11T10:52:13.543Z,1749.38
2018-07-11T10:53:13.463Z,1687.50
2018-07-11T10:54:13.451Z,1687.50
2018-07-11T10:55:13.449Z,1732.50
2018-07-11T10:56:13.435Z,1648.12
2018-07-11T10:57:13.492Z,1670.62
2018-07-11T10:58:13.413Z,1974.38
2018-07-11T10:59:13.408Z,1766.25
2018-07-11T11:00:35.963Z,1760.62
2018-07-11T11:01:13.400Z,1710.00
2018-07-11T11:02:13.443Z,2058.75
2018-07-11T11:03:13.366Z,2435.62
2018-07-11T11:04:13.354Z,2081.25
2018-07-11T11:05:13.346Z,2666.25
2018-07-11T11:06:13.362Z,2340.00
2018-07-11T11:07:13.396Z,3133.12
2018-07-11T11:08:13.321Z,4123.12
2018-07-11T11:09:13.310Z,4038.75
2018-07-11T11:10:13.302Z,4291.88
2018-07-11T11:11:13.855Z,4263.75
2018-07-11T11:12:13.388Z,3622.50
2018-07-11T11:13:13.276Z,3110.62
2018-07-11T11:14:13.272Z,2880.00
2018-07-11T11:15:13.258Z,1479.38
2018-07-11T11:16:13.249Z,3808.12
2018-07-11T11:17:13.309Z,3515.62
2018-07-11T11:18:13.412Z,2790.00
2018-07-11T11:19:13.229Z,2671.88
2018-07-11T11:20:13.215Z,2266.88
2018-07-11T11:21:13.218Z,2362.50
2018-07-11T11:22:13.261Z,2801.25
2018-07-11T11:23:13.190Z,2739.38
2018-07-11T11:24:13.181Z,2992.50
2018-07-11T11:25:13.171Z,3363.75
2018-07-11T11:26:13.163Z,1428.75
2018-07-11T11:27:13.233Z,1231.88
2018-07-11T11:28:13.147Z,1192.50
2018-07-11T11:29:13.142Z,1130.62
2018-07-11T11:30:13.128Z,1085.62
2018-07-11T11:31:13.120Z,1130.62
2018-07-11T11:32:13.425Z,1203.75
2018-07-11T11:33:13.101Z,1355.62
2018-07-11T11:34:13.096Z,1203.75
2018-07-11T11:35:13.084Z,1316.25
2018-07-11T11:36:13.073Z,2300.62
2018-07-11T11:37:13.128Z,2227.50
2018-07-11T11:38:13.056Z,2188.12
2018-07-11T11:39:13.044Z,2784.38
2018-07-11T11:40:13.036Z,3065.62
2018-07-11T11:41:13.031Z,2407.50
2018-07-11T11:42:13.446Z,1715.62
2018-07-11T11:43:13.018Z,1395.00
2018-07-11T11:44:13.000Z,1153.12
2018-07-11T11:45:12.992Z,1057.50
2018-07-11T11:46:12.981Z,916.88
2018-07-11T11:47:13.038Z,815.62
2018-07-11T11:48:12.964Z,748.12
2018-07-11T11:49:12.958Z,669.38
2018-07-11T11:50:12.947Z,630.00
2018-07-11T11:51:12.939Z,573.75
2018-07-11T11:52:12.986Z,500.62
2018-07-11T11:53:13.852Z,444.38
2018-07-11T11:54:12.903Z,410.62
2018-07-11T11:55:12.892Z,371.25
2018-07-11T11:56:12.889Z,360.00
2018-07-11T11:57:12.876Z,354.38
2018-07-11T11:58:12.928Z,376.88
2018-07-11T11:59:12.855Z,405.00
2018-07-11T12:00:12.859Z,455.62
2018-07-11T12:01:12.834Z,562.50
2018-07-11T12:02:12.823Z,720.00
2018-07-11T12:03:12.884Z,956.25
2018-07-11T12:04:12.803Z,1816.88
2018-07-11T12:05:12.795Z,1760.62
2018-07-11T12:06:12.789Z,2244.38
2018-07-11T12:07:12.838Z,2103.75
2018-07-11T12:08:12.833Z,2058.75
2018-07-11T12:09:12.753Z,1760.62
2018-07-11T12:10:12.745Z,1845.00
2018-07-11T12:11:12.745Z,1726.88
2018-07-11T12:12:12.726Z,2041.88
2018-07-11T12:13:12.783Z,3706.88
2018-07-11T12:14:15.352Z,2531.25
2018-07-11T12:15:12.695Z,1305.00
2018-07-11T12:16:12.695Z,1192.50
2018-07-11T12:17:12.678Z,1141.88
2018-07-11T12:18:12.736Z,1220.62
2018-07-11T12:19:12.658Z,1288.12
2018-07-11T12:20:12.656Z,1411.88
2018-07-11T12:21:12.684Z,1603.12
2018-07-11T12:22:12.628Z,3127.50
2018-07-11T12:23:12.689Z,2559.38
2018-07-11T12:24:12.619Z,3768.75
2018-07-11T12:25:12.600Z,2868.75
2018-07-11T12:26:12.592Z,1946.25
2018-07-11T12:27:12.578Z,1906.88
2018-07-11T12:28:12.652Z,2070.00
2018-07-11T12:29:12.559Z,2188.12
2018-07-11T12:30:20.747Z,1704.38
2018-07-11T12:31:20.632Z,1586.25
2018-07-11T12:32:20.764Z,1395.00
2018-07-11T12:33:12.586Z,1192.50
2018-07-11T12:34:12.514Z,1057.50
2018-07-11T12:35:12.506Z,956.25